createdAt,value
2023-04-16T00:00:01.711Z,954.0999756
2023-04-16T00:01:03.583Z,954.128418
2023-04-16T00:02:04.504Z,954.1021118
2023-04-16T00:03:06.246Z,954.135376
2023-04-16T00:04:07.296Z,954.1182861
2023-04-16T00:05:08.636Z,954.1068726
2023-04-16T00:06:09.734Z,954.1101685
2023-04-16T00:07:11.646Z,954.0626831
2023-04-16T00:08:12.641Z,954.09729
2023-04-16T00:09:14.704Z,954.0917969
2023-04-16T00:10:16.710Z,954.057373
2023-04-16T00:11:18.555Z,954.1253052
2023-04-16T00:12:50.090Z,954.1251831
2023-04-16T00:13:52.016Z,954.1224976
2023-04-16T00:14:53.408Z,954.1677856
2023-04-16T00:15:55.119Z,954.1414185
2023-04-16T00:16:56.077Z,954.1640015
2023-04-16T00:17:57.555Z,954.1720581
2023-04-16T00:18:59.079Z,954.210144
2023-04-16T00:20:00.206Z,954.2090454
2023-04-16T00:21:02.211Z,954.1799927
2023-04-16T00:22:04.033Z,954.1810913
2023-04-16T00:23:05.158Z,954.2129517
2023-04-16T00:24:07.152Z,954.1847534
2023-04-16T00:25:08.691Z,954.2075195
2023-04-16T00:26:11.868Z,954.2000122
2023-04-16T00:27:13.020Z,954.2251587
2023-04-16T00:28:14.443Z,954.2176514
2023-04-16T00:29:16.094Z,954.2315674
2023-04-16T00:30:17.561Z,954.257019
2023-04-16T00:31:49.740Z,954.2462769
2023-04-16T00:32:50.842Z,954.241394
2023-04-16T00:33:52.581Z,954.2371216
2023-04-16T00:34:54.587Z,954.2575073
2023-04-16T00:35:56.545Z,954.2348633
2023-04-16T00:36:57.557Z,954.2436523
2023-04-16T00:37:58.418Z,954.1976318
2023-04-16T00:38:59.923Z,954.241394
2023-04-16T00:40:01.730Z,954.2084961
2023-04-16T00:41:03.523Z,954.1785278
2023-04-16T00:42:05.193Z,954.1633301
2023-04-16T00:43:06.572Z,954.2012329
2023-04-16T00:44:08.001Z,954.2076416
2023-04-16T00:45:08.946Z,954.1878052
2023-04-16T00:46:10.538Z,954.1796265
2023-04-16T00:47:11.424Z,954.2001343
2023-04-16T00:48:12.376Z,954.1861572
2023-04-16T00:49:13.835Z,954.2017212
2023-04-16T00:50:16.094Z,954.1748657
2023-04-16T00:51:18.416Z,954.1861572
2023-04-16T00:52:50.553Z,954.1489258
2023-04-16T00:54:58.050Z,954.1741943
2023-04-16T00:55:59.599Z,954.1293945
2023-04-16T00:57:00.922Z,954.1138916
2023-04-16T00:58:01.917Z,954.0825195
2023-04-16T00:59:03.610Z,954.0654907
2023-04-16T01:00:04.599Z,954.0129395
2023-04-16T01:01:06.645Z,954.0114136
2023-04-16T01:02:07.788Z,954.024353
2023-04-16T01:03:09.165Z,954.0167236
2023-04-16T01:04:10.606Z,954.0653076
2023-04-16T01:05:11.611Z,954.0426636
2023-04-16T01:06:13.890Z,954.0840454
2023-04-16T01:07:15.646Z,954.0637207
2023-04-16T01:08:16.680Z,954.1026611
2023-04-16T01:09:17.497Z,954.1085815
2023-04-16T01:10:49.822Z,954.1116943
2023-04-16T01:11:52.363Z,954.0892334
2023-04-16T01:12:53.304Z,954.1224976
2023-04-16T01:13:55.121Z,954.1052856
2023-04-16T01:14:56.051Z,954.0917358
2023-04-16T01:15:57.585Z,954.0787354
2023-04-16T01:16:58.606Z,954.0793457
2023-04-16T01:17:59.510Z,954.0421753
2023-04-16T01:19:00.378Z,953.9937744
2023-04-16T01:20:01.588Z,953.9770508
2023-04-16T01:21:03.545Z,954.0206299
2023-04-16T01:22:05.060Z,953.9981079
2023-04-16T01:23:06.134Z,954.0476074
2023-04-16T01:24:08.092Z,954.0480957
2023-04-16T01:25:09.634Z,954.0653076
2023-04-16T01:26:10.981Z,954.0775146
2023-04-16T01:27:12.515Z,954.0552368
2023-04-16T01:28:13.748Z,954.0401611
2023-04-16T01:29:14.595Z,954.0305176
2023-04-16T01:30:15.487Z,954.0484619
2023-04-16T01:31:17.134Z,954.0959473
2023-04-16T01:32:49.535Z,954.0814209
2023-04-16T01:33:51.010Z,954.0571899
2023-04-16T01:34:51.923Z,954.0669556
2023-04-16T01:35:53.550Z,954.0491943
2023-04-16T01:36:54.658Z,954.0922852
2023-04-16T01:37:56.076Z,954.1116333
2023-04-16T01:38:57.466Z,954.0879517
2023-04-16T01:39:59.114Z,954.0728149
2023-04-16T01:41:00.568Z,954.1253052
2023-04-16T01:42:01.571Z,954.1095581
2023-04-16T01:43:03.210Z,954.0988159
2023-04-16T01:44:05.061Z,954.081665
2023-04-16T01:45:06.071Z,954.1482544
2023-04-16T01:46:08.144Z,954.0998535
2023-04-16T01:47:09.073Z,954.105835
2023-04-16T01:48:09.959Z,954.1359253
2023-04-16T01:49:11.723Z,954.1277466
2023-04-16T01:50:13.084Z,954.1239014
2023-04-16T01:51:15.121Z,954.1141968
2023-04-16T01:52:16.079Z,954.1659546
2023-04-16T01:53:17.031Z,954.149231
2023-04-16T01:54:49.074Z,954.1437378
2023-04-16T01:55:50.123Z,954.1668701
2023-04-16T01:56:52.040Z,954.1550293
2023-04-16T01:57:53.545Z,954.2337646
2023-04-16T01:58:54.426Z,954.1842041
2023-04-16T01:59:56.225Z,954.225647
2023-04-16T02:00:58.114Z,954.2376709
2023-04-16T02:01:59.035Z,954.2064209
2023-04-16T02:03:00.010Z,954.2469482
2023-04-16T02:04:01.707Z,954.2561035
2023-04-16T02:05:03.023Z,954.1973267
2023-04-16T02:06:04.612Z,954.2474976
2023-04-16T02:07:05.627Z,954.2573242
2023-04-16T02:08:06.505Z,954.2340698
2023-04-16T02:09:07.541Z,954.2463989
2023-04-16T02:10:09.108Z,954.2853394
2023-04-16T02:11:11.124Z,954.2857666
2023-04-16T02:12:13.010Z,954.2868652
2023-04-16T02:13:14.103Z,954.2982788
2023-04-16T02:14:15.667Z,954.2754517
2023-04-16T02:15:16.615Z,954.3302612
2023-04-16T02:16:49.740Z,954.3178711
2023-04-16T02:17:51.125Z,954.3432617
2023-04-16T02:18:52.171Z,954.3161621
2023-04-16T02:19:53.233Z,954.3513184
2023-04-16T02:20:55.051Z,954.3302612
2023-04-16T02:21:56.037Z,954.3409424
2023-04-16T02:22:56.950Z,954.3318481
2023-04-16T02:23:57.800Z,954.2924805
2023-04-16T02:24:59.640Z,954.3200073
2023-04-16T02:26:00.528Z,954.3469238
2023-04-16T02:27:02.006Z,954.3776855
2023-04-16T02:28:02.875Z,954.3787231
2023-04-16T02:29:04.548Z,954.3189697
2023-04-16T02:30:05.594Z,954.3443604
2023-04-16T02:31:07.054Z,954.3354492
2023-04-16T02:32:08.111Z,954.3709106
2023-04-16T02:33:08.896Z,954.3870239
2023-04-16T02:34:10.534Z,954.3730469
2023-04-16T02:35:12.054Z,954.3778687
2023-04-16T02:36:13.486Z,954.3656006
2023-04-16T02:37:15.711Z,954.3903809
2023-04-16T02:38:16.983Z,954.3783569
2023-04-16T02:39:49.029Z,954.4064331
2023-04-16T02:40:50.558Z,954.3928223
2023-04-16T02:41:51.562Z,954.4047852
2023-04-16T02:42:52.970Z,954.3740845
2023-04-16T02:43:53.712Z,954.3804932
2023-04-16T02:44:55.625Z,954.4364624
2023-04-16T02:45:57.607Z,954.4160767
2023-04-16T02:46:58.484Z,954.3928223
2023-04-16T02:48:00.056Z,954.409668
2023-04-16T02:49:00.762Z,954.4284668
2023-04-16T02:50:01.653Z,954.4138184
2023-04-16T02:51:03.559Z,954.4364624
2023-04-16T02:52:05.031Z,954.3864746
2023-04-16T02:53:05.920Z,954.4495239
2023-04-16T02:54:06.794Z,954.421936
2023-04-16T02:55:08.559Z,954.4429932
2023-04-16T02:56:10.103Z,954.4396973
2023-04-16T02:57:10.993Z,954.4404907
2023-04-16T02:58:12.562Z,954.4404907
2023-04-16T02:59:13.662Z,954.4575806
2023-04-16T03:00:14.596Z,954.4258423
2023-04-16T03:01:16.181Z,954.4441528
2023-04-16T03:02:48.704Z,954.4070435
2023-04-16T03:03:49.380Z,954.4434204
2023-04-16T03:04:51.106Z,954.4484253
2023-04-16T03:05:53.029Z,954.4096069
2023-04-16T03:06:54.605Z,954.4353027
2023-04-16T03:07:55.400Z,954.4196777
2023-04-16T03:08:56.286Z,954.4393921
2023-04-16T03:09:58.093Z,954.4138184
2023-04-16T03:10:59.498Z,954.4898682
2023-04-16T03:12:01.115Z,954.4413452
2023-04-16T03:13:02.514Z,954.4398193
2023-04-16T03:14:03.531Z,954.4890137
2023-04-16T03:15:05.010Z,954.5003052
2023-04-16T03:16:05.929Z,954.4921875
2023-04-16T03:17:07.535Z,954.5002441
2023-04-16T03:18:08.445Z,954.4344482
2023-04-16T03:19:09.462Z,954.4607544
2023-04-16T03:20:10.366Z,954.4741211
2023-04-16T03:21:12.076Z,954.4376831
2023-04-16T03:22:12.996Z,954.4740601
2023-04-16T03:23:13.829Z,954.4746704
2023-04-16T03:24:15.574Z,954.5020142
2023-04-16T03:25:48.315Z,954.4703369
2023-04-16T03:26:50.541Z,954.4660645
2023-04-16T03:27:51.373Z,954.4191284
2023-04-16T03:28:52.181Z,954.4434204
2023-04-16T03:29:54.031Z,954.4597168
2023-04-16T03:30:55.179Z,954.4724731
2023-04-16T03:31:56.591Z,954.4643555
2023-04-16T03:32:57.529Z,954.4248657
2023-04-16T03:33:58.324Z,954.4923706
2023-04-16T03:35:00.226Z,954.4746094
2023-04-16T03:36:01.625Z,954.4971924
2023-04-16T03:37:02.650Z,954.4985962
2023-04-16T03:38:04.523Z,954.4830322
2023-04-16T03:39:05.339Z,954.4829102
2023-04-16T03:40:07.177Z,954.4812622
2023-04-16T03:41:08.550Z,954.5045166
2023-04-16T03:42:09.591Z,954.4607544
2023-04-16T03:43:11.581Z,954.4715576
2023-04-16T03:44:12.464Z,954.4812622
2023-04-16T03:45:14.236Z,954.4788818
2023-04-16T03:46:16.534Z,954.4896851
2023-04-16T03:47:48.410Z,954.5246582
2023-04-16T03:48:49.207Z,954.5106201
2023-04-16T03:49:50.145Z,954.5003662
2023-04-16T03:50:51.136Z,954.505249
2023-04-16T03:51:53.316Z,954.513916
2023-04-16T03:52:54.181Z,954.5203857
2023-04-16T03:53:54.981Z,954.5315552
2023-04-16T03:54:56.620Z,954.562439
2023-04-16T03:55:58.586Z,954.5251465
2023-04-16T03:57:00.634Z,954.4910889
2023-04-16T03:58:01.520Z,954.5112305
2023-04-16T03:59:02.296Z,954.5007935
2023-04-16T04:00:04.094Z,954.5186157
2023-04-16T04:01:06.098Z,954.4943848
2023-04-16T04:02:07.229Z,954.4841919
2023-04-16T04:03:08.305Z,954.4884644
2023-04-16T04:04:09.216Z,954.4675293
2023-04-16T04:05:10.674Z,954.4900513
2023-04-16T04:06:12.633Z,954.4841919
2023-04-16T04:07:13.821Z,954.5078125
2023-04-16T04:08:14.828Z,954.4556274
2023-04-16T04:09:17.044Z,954.4689941
2023-04-16T04:10:49.101Z,954.4017334
2023-04-16T04:11:50.535Z,954.4528198
2023-04-16T04:12:51.468Z,954.4362793
2023-04-16T04:13:52.984Z,954.4614868
2023-04-16T04:14:53.917Z,954.4049072
2023-04-16T04:15:55.636Z,954.4508057
2023-04-16T04:16:57.101Z,954.4087524
2023-04-16T04:17:58.115Z,954.4598389
2023-04-16T04:19:00.066Z,954.4572754
2023-04-16T04:20:01.898Z,954.4597168
2023-04-16T04:21:03.046Z,954.4835205
2023-04-16T04:22:04.048Z,954.5136108
2023-04-16T04:23:05.053Z,954.5053101
2023-04-16T04:24:07.058Z,954.5415649
2023-04-16T04:25:08.750Z,954.5356445
2023-04-16T04:26:09.785Z,954.5415649
2023-04-16T04:27:11.492Z,954.5543823
2023-04-16T04:28:12.383Z,954.5640869
2023-04-16T04:29:13.800Z,954.5349731
2023-04-16T04:30:14.846Z,954.5435791
2023-04-16T04:31:17.142Z,954.5340576
2023-04-16T04:32:49.531Z,954.555542
2023-04-16T04:33:50.329Z,954.5581055
2023-04-16T04:34:51.271Z,954.5753174
2023-04-16T04:35:53.116Z,954.5552979
2023-04-16T04:36:54.087Z,954.5769653
2023-04-16T04:37:56.060Z,954.5737305
2023-04-16T04:38:57.087Z,954.5543823
2023-04-16T04:39:58.537Z,954.5543823
2023-04-16T04:41:00.130Z,954.5730591
2023-04-16T04:42:01.112Z,954.5209351
2023-04-16T04:43:03.055Z,954.5396729
2023-04-16T04:44:04.678Z,954.5645142
2023-04-16T04:45:06.075Z,954.557373
2023-04-16T04:46:07.753Z,954.5369263
2023-04-16T04:47:08.633Z,954.5913086
2023-04-16T04:48:09.529Z,954.604126
2023-04-16T04:49:10.798Z,954.5690918
2023-04-16T04:50:11.577Z,954.6132813
2023-04-16T04:51:13.479Z,954.6341553
2023-04-16T04:52:14.634Z,954.6821899
2023-04-16T04:53:16.033Z,954.670105
2023-04-16T04:54:47.410Z,954.6437378
2023-04-16T04:55:52.129Z,954.637207
2023-04-16T04:56:50.601Z,954.6367188
2023-04-16T04:57:51.467Z,954.6307983
2023-04-16T04:58:53.053Z,954.668457
2023-04-16T04:59:54.024Z,954.7105713
2023-04-16T05:00:55.621Z,954.7050171
2023-04-16T05:01:57.083Z,954.6953125
2023-04-16T05:02:58.168Z,954.7137451
2023-04-16T05:03:59.124Z,954.7575073
2023-04-16T05:05:00.118Z,954.7129517
2023-04-16T05:06:01.546Z,954.6774902
2023-04-16T05:07:03.558Z,954.7474976
2023-04-16T05:08:04.394Z,954.7340698
2023-04-16T05:09:06.040Z,954.7468872
2023-04-16T05:10:07.563Z,954.7313843
2023-04-16T05:11:08.509Z,954.7302856
2023-04-16T05:12:10.062Z,954.7501831
2023-04-16T05:13:10.880Z,954.7653809
2023-04-16T05:14:12.656Z,954.7093506
2023-04-16T05:15:14.567Z,954.7868652
2023-04-16T05:16:16.650Z,954.7514038
2023-04-16T05:17:48.099Z,954.7593994
2023-04-16T05:18:49.023Z,954.7793579
2023-04-16T05:19:50.615Z,954.7511597
2023-04-16T05:20:51.515Z,954.7371826
2023-04-16T05:21:53.058Z,954.8034668
2023-04-16T05:22:54.161Z,954.7888794
2023-04-16T05:23:54.968Z,954.8254395
2023-04-16T05:24:56.048Z,954.8067017
2023-04-16T05:25:57.651Z,954.821228
2023-04-16T05:26:59.522Z,954.8453369
2023-04-16T05:28:00.414Z,954.9034424
2023-04-16T05:29:01.603Z,954.8798218
2023-04-16T05:30:03.141Z,954.855957
2023-04-16T05:31:05.072Z,954.8671875
2023-04-16T05:32:06.000Z,954.835022
2023-04-16T05:33:06.849Z,954.8354492
2023-04-16T05:34:08.574Z,954.8509521
2023-04-16T05:35:10.601Z,954.8790894
2023-04-16T05:36:12.123Z,954.8822021
2023-04-16T05:37:12.988Z,954.8746948
2023-04-16T05:38:14.072Z,954.894043
2023-04-16T05:39:15.564Z,954.9085693
2023-04-16T05:40:47.534Z,954.939209
2023-04-16T05:41:49.066Z,954.9349365
2023-04-16T05:42:50.030Z,954.9526367
2023-04-16T05:43:50.926Z,954.9099731
2023-04-16T05:44:51.989Z,954.883728
2023-04-16T05:45:53.606Z,954.90625
2023-04-16T05:46:54.582Z,954.9257813
2023-04-16T05:47:55.986Z,954.9159546
2023-04-16T05:48:57.521Z,954.9384155
2023-04-16T05:49:58.405Z,954.9265747
2023-04-16T05:50:59.671Z,954.888855
2023-04-16T05:52:01.502Z,954.9454956
2023-04-16T05:53:02.299Z,954.9593506
2023-04-16T05:54:04.280Z,954.9318848
2023-04-16T05:55:05.218Z,954.9285889
2023-04-16T05:56:07.133Z,954.9696655
2023-04-16T05:57:08.064Z,954.9405518
2023-04-16T05:58:09.024Z,954.911377
2023-04-16T05:59:10.707Z,954.9194336
2023-04-16T06:00:11.628Z,954.965332
2023-04-16T06:01:13.766Z,954.9753418
2023-04-16T06:02:46.321Z,954.9703979
2023-04-16T06:03:47.071Z,954.9515381
2023-04-16T06:04:48.476Z,954.9578247
2023-04-16T06:05:50.223Z,954.9509277
2023-04-16T06:06:52.140Z,955.0027466
2023-04-16T06:07:52.949Z,954.9751587
2023-04-16T06:08:53.762Z,954.9841919
2023-04-16T06:09:55.590Z,954.9857788
2023-04-16T06:10:57.027Z,954.9690552
2023-04-16T06:11:58.624Z,954.9576416
2023-04-16T06:12:59.421Z,955.0018921
2023-04-16T06:14:00.356Z,955.0131836
2023-04-16T06:15:01.357Z,955.0534668
2023-04-16T06:16:03.081Z,955.0371704
2023-04-16T06:17:04.617Z,955.0280762
2023-04-16T06:18:05.584Z,954.9968262
2023-04-16T06:19:06.489Z,955.0176392
2023-04-16T06:20:07.572Z,954.9939575
2023-04-16T06:21:09.120Z,955.0062256
2023-04-16T06:22:10.146Z,955.0692139
2023-04-16T06:23:11.010Z,955.0315552
2023-04-16T06:24:12.591Z,955.0639038
2023-04-16T06:25:14.795Z,955.0809326
2023-04-16T06:26:16.265Z,955.1390381
2023-04-16T06:27:47.619Z,955.1331177
2023-04-16T06:28:48.601Z,955.1206055
2023-04-16T06:29:49.714Z,955.1732788
2023-04-16T06:30:50.695Z,955.1844482
2023-04-16T06:31:52.658Z,955.1855469
2023-04-16T06:32:53.557Z,955.1847534
2023-04-16T06:33:55.111Z,955.1900635
2023-04-16T06:34:56.477Z,955.2051392
2023-04-16T06:35:57.490Z,955.2218628
2023-04-16T06:36:58.981Z,955.1856079
2023-04-16T06:38:00.573Z,955.2195435
2023-04-16T06:39:01.480Z,955.2136841
2023-04-16T06:40:03.048Z,955.2120361
2023-04-16T06:41:05.103Z,955.2056274
2023-04-16T06:42:06.050Z,955.246582
2023-04-16T06:43:06.982Z,955.2265625
2023-04-16T06:44:08.005Z,955.2313232
2023-04-16T06:45:09.002Z,955.2566528
2023-04-16T06:46:10.772Z,955.2380981
2023-04-16T06:47:12.601Z,955.3049927
2023-04-16T06:48:13.851Z,955.2678223
2023-04-16T06:49:16.129Z,955.2453003
2023-04-16T06:50:47.864Z,955.2689819
2023-04-16T06:51:49.575Z,955.2869263
2023-04-16T06:52:50.515Z,955.2307739
2023-04-16T06:53:51.581Z,955.2665405
2023-04-16T06:54:53.071Z,955.3010864
2023-04-16T06:55:54.175Z,955.2337646
2023-04-16T06:56:55.998Z,955.2246704
2023-04-16T06:57:56.791Z,955.2645874
2023-04-16T06:58:57.752Z,955.2932129
2023-04-16T06:59:58.799Z,955.2593994
2023-04-16T07:01:00.562Z,955.257019
2023-04-16T07:02:02.227Z,955.289978
2023-04-16T07:03:03.134Z,955.2748413
2023-04-16T07:04:04.362Z,955.3157959
2023-04-16T07:05:06.527Z,955.2941895
2023-04-16T07:06:08.116Z,955.2764893
2023-04-16T07:07:10.055Z,955.2797852
2023-04-16T07:08:10.939Z,955.30896
2023-04-16T07:09:12.108Z,955.3106079
2023-04-16T07:10:13.848Z,955.3215332
2023-04-16T07:11:16.180Z,955.2759399
2023-04-16T07:12:48.029Z,955.3442383
2023-04-16T07:13:49.113Z,955.3092041
2023-04-16T07:14:51.184Z,955.3393555
2023-04-16T07:15:53.125Z,955.3399048
2023-04-16T07:16:54.567Z,955.3878174
2023-04-16T07:17:56.167Z,955.3862305
2023-04-16T07:18:57.032Z,955.3696289
2023-04-16T07:19:58.117Z,955.390625
2023-04-16T07:20:59.027Z,955.3786011
2023-04-16T07:22:00.801Z,955.4179688
2023-04-16T07:23:01.602Z,955.373291
2023-04-16T07:24:02.675Z,955.3970337
2023-04-16T07:25:03.732Z,955.4098511
2023-04-16T07:26:05.616Z,955.3937378
2023-04-16T07:27:07.491Z,955.3824463
2023-04-16T07:28:08.436Z,955.4056396
2023-04-16T07:29:09.697Z,955.4290771
2023-04-16T07:30:10.408Z,955.4398193
2023-04-16T07:31:12.079Z,955.4054565
2023-04-16T07:32:14.801Z,955.4675293
2023-04-16T07:33:13.786Z,955.4346924
2023-04-16T07:34:15.213Z,955.3825684
2023-04-16T07:35:47.070Z,955.3875122
2023-04-16T07:36:48.470Z,955.4349976
2023-04-16T07:37:50.070Z,955.4083862
2023-04-16T07:38:51.309Z,955.4390869
2023-04-16T07:39:53.209Z,955.4627075
2023-04-16T07:40:54.610Z,955.4378662
2023-04-16T07:41:55.597Z,955.3942261
2023-04-16T07:42:57.056Z,955.4621582
2023-04-16T07:43:58.125Z,955.4104614
2023-04-16T07:44:59.159Z,955.4511108
2023-04-16T07:46:00.168Z,955.4882813
2023-04-16T07:47:02.858Z,955.4623413
2023-04-16T07:48:02.951Z,955.4353027
2023-04-16T07:49:03.859Z,955.4718628
2023-04-16T07:50:05.034Z,955.4682007
2023-04-16T07:51:06.087Z,955.5101318
2023-04-16T07:52:07.651Z,955.4810181
2023-04-16T07:53:09.333Z,955.5349731
2023-04-16T07:54:11.089Z,955.5426636
2023-04-16T07:55:12.185Z,955.5675049
2023-04-16T07:56:14.107Z,955.539978
2023-04-16T07:57:46.655Z,955.5773315
2023-04-16T07:58:48.605Z,955.598877
2023-04-16T07:59:50.785Z,955.6391602
2023-04-16T08:00:51.794Z,955.6066895
2023-04-16T08:01:53.634Z,955.6160889
2023-04-16T08:02:54.790Z,955.6335449
2023-04-16T08:03:55.759Z,955.6434326
2023-04-16T08:04:57.343Z,955.62854
2023-04-16T08:05:58.014Z,955.6404419
2023-04-16T08:06:59.542Z,955.6557007
2023-04-16T08:08:00.960Z,955.6127319
2023-04-16T08:09:02.039Z,955.6473999
2023-04-16T08:10:03.613Z,955.6397095
2023-04-16T08:11:04.742Z,955.6495361
2023-04-16T08:12:06.531Z,955.6798706
2023-04-16T08:13:08.171Z,955.6837769
2023-04-16T08:14:09.273Z,955.6671753
2023-04-16T08:15:10.300Z,955.7045288
2023-04-16T08:16:12.105Z,955.7147827
2023-04-16T08:17:13.687Z,955.7771606
2023-04-16T08:18:46.099Z,955.7567139
2023-04-16T08:19:47.535Z,955.7573242
2023-04-16T08:20:48.983Z,955.788269
2023-04-16T08:21:50.614Z,955.8165894
2023-04-16T08:22:53.084Z,955.810791
2023-04-16T08:23:53.936Z,955.8292847
2023-04-16T08:24:54.962Z,955.7787476
2023-04-16T08:25:55.738Z,955.8054199
2023-04-16T08:27:08.145Z,955.8421631
2023-04-16T08:27:58.949Z,955.8143921
2023-04-16T08:29:00.628Z,955.8796997
2023-04-16T08:30:01.565Z,955.8308105
2023-04-16T08:31:02.577Z,955.8400269
2023-04-16T08:32:04.456Z,955.8735962
2023-04-16T08:33:05.514Z,955.8565674
2023-04-16T08:34:06.379Z,955.8911133
2023-04-16T08:35:07.232Z,955.8798218
2023-04-16T08:36:08.622Z,955.8782959
2023-04-16T08:37:11.199Z,955.8735962
2023-04-16T08:38:12.176Z,955.8655396
2023-04-16T08:39:14.407Z,955.8936157
2023-04-16T08:40:47.076Z,955.9049072
2023-04-16T08:41:49.632Z,955.8968506
2023-04-16T08:42:51.772Z,955.9017334
2023-04-16T08:43:53.515Z,955.9315796
2023-04-16T08:44:55.018Z,955.8926392
2023-04-16T08:45:56.553Z,955.895874
2023-04-16T08:46:57.501Z,955.914856
2023-04-16T08:47:59.340Z,955.9245605
2023-04-16T08:49:01.228Z,955.9320068
2023-04-16T08:50:02.291Z,955.9335938
2023-04-16T08:51:04.060Z,955.9595337
2023-04-16T08:52:05.145Z,955.9401855
2023-04-16T08:53:07.266Z,955.986084
2023-04-16T08:54:08.229Z,956.0059204
2023-04-16T08:55:09.228Z,955.9639282
2023-04-16T08:56:10.135Z,955.9962769
2023-04-16T08:57:12.093Z,955.9678345
2023-04-16T08:58:13.060Z,956.0023193
2023-04-16T08:59:45.510Z,955.9829712
2023-04-16T09:00:46.402Z,955.9716187
2023-04-16T09:01:48.653Z,956.0025024
2023-04-16T09:02:50.775Z,955.9699707
2023-04-16T09:03:52.385Z,955.984436
2023-04-16T09:04:53.341Z,955.9500732
2023-04-16T09:05:54.085Z,955.993042
2023-04-16T09:06:55.480Z,955.987793
2023-04-16T09:07:57.029Z,955.9726563
2023-04-16T09:08:57.857Z,956.015686
2023-04-16T09:09:59.576Z,956.0276489
2023-04-16T09:11:01.096Z,955.9840698
2023-04-16T09:12:02.664Z,956.0028687
2023-04-16T09:13:03.614Z,956.0293579
2023-04-16T09:14:04.726Z,956.0471191
2023-04-16T09:15:06.692Z,956.046875
2023-04-16T09:16:08.789Z,956.0621948
2023-04-16T09:17:09.808Z,956.1084595
2023-04-16T09:18:10.847Z,956.0761108
2023-04-16T09:19:12.670Z,956.0793457
2023-04-16T09:20:14.712Z,956.1312256
2023-04-16T09:21:47.285Z,956.0740356
2023-04-16T09:22:48.284Z,956.0826416
2023-04-16T09:23:49.313Z,956.0831299
2023-04-16T09:24:51.041Z,956.0595093
2023-04-16T09:25:52.623Z,956.0870361
2023-04-16T09:26:54.084Z,956.0952148
2023-04-16T09:27:55.621Z,956.1052856
2023-04-16T09:28:56.553Z,956.0828247
2023-04-16T09:29:57.464Z,956.0839233
2023-04-16T09:30:59.065Z,956.0808105
2023-04-16T09:32:00.553Z,956.1018677
2023-04-16T09:33:01.448Z,956.0858765
2023-04-16T09:34:02.324Z,956.1193848
2023-04-16T09:35:03.251Z,956.112793
2023-04-16T09:36:04.537Z,956.1219482
2023-04-16T09:37:06.165Z,956.0761108
2023-04-16T09:38:08.181Z,956.1213989
2023-04-16T09:39:09.328Z,956.1187744
2023-04-16T09:40:10.673Z,956.1123657
2023-04-16T09:41:12.008Z,956.1107788
2023-04-16T09:42:12.972Z,956.1248169
2023-04-16T09:43:45.597Z,956.1054688
2023-04-16T09:44:47.563Z,956.1583862
2023-04-16T09:45:48.515Z,956.1082764
2023-04-16T09:46:50.093Z,956.1411133
2023-04-16T09:47:51.696Z,956.1401367
2023-04-16T09:48:52.690Z,956.1461182
2023-04-16T09:49:53.567Z,956.1698608
2023-04-16T09:50:54.494Z,956.161377
2023-04-16T09:51:56.133Z,956.1345215
2023-04-16T09:52:57.007Z,956.1818848
2023-04-16T09:53:57.954Z,956.1809082
2023-04-16T09:54:58.919Z,956.1534424
2023-04-16T09:56:00.522Z,956.1931763
2023-04-16T09:57:02.036Z,956.1668701
2023-04-16T09:58:03.620Z,956.1856079
2023-04-16T09:59:04.618Z,956.1482544
2023-04-16T10:00:05.925Z,956.1899414
2023-04-16T10:01:06.971Z,956.1688843
2023-04-16T10:02:15.572Z,956.1919556
2023-04-16T10:03:09.578Z,956.1733398
2023-04-16T10:04:10.465Z,956.1690674
2023-04-16T10:05:11.288Z,956.1659546
2023-04-16T10:06:12.152Z,956.1726074
2023-04-16T10:07:45.666Z,956.1889038
2023-04-16T10:08:49.154Z,956.1904907
2023-04-16T10:09:48.755Z,956.1362305
2023-04-16T10:10:50.663Z,956.1837769
2023-04-16T10:11:52.625Z,956.2075195
2023-04-16T10:12:53.778Z,956.1893921
2023-04-16T10:13:54.842Z,956.1867065
2023-04-16T10:14:56.677Z,956.211731
2023-04-16T10:15:58.560Z,956.2036133
2023-04-16T10:16:59.708Z,956.1875
2023-04-16T10:18:01.649Z,956.2084351
2023-04-16T10:19:02.684Z,956.2056274
2023-04-16T10:20:03.729Z,956.2451782
2023-04-16T10:21:04.681Z,956.225769
2023-04-16T10:22:06.609Z,956.210022
2023-04-16T10:23:07.553Z,956.2246704
2023-04-16T10:24:08.456Z,956.2345581
2023-04-16T10:25:09.488Z,956.2125244
2023-04-16T10:26:10.389Z,956.2147827
2023-04-16T10:27:12.101Z,956.2251587
2023-04-16T10:28:44.602Z,956.2140503
2023-04-16T10:29:45.561Z,956.2410889
2023-04-16T10:30:46.646Z,956.239624
2023-04-16T10:31:48.168Z,956.258606
2023-04-16T10:32:49.237Z,956.2548218
2023-04-16T10:33:50.199Z,956.227356
2023-04-16T10:34:52.032Z,956.2957764
2023-04-16T10:36:06.719Z,956.2786865
2023-04-16T10:36:54.533Z,956.2912598
2023-04-16T10:37:55.492Z,956.3116455
2023-04-16T10:38:57.126Z,956.3361206
2023-04-16T10:39:58.683Z,956.2923584
2023-04-16T10:40:59.618Z,956.3048706
2023-04-16T10:42:01.674Z,956.3117065
2023-04-16T10:43:02.556Z,956.295166
2023-04-16T10:44:03.484Z,956.2896118
2023-04-16T10:45:05.057Z,956.3074951
2023-04-16T10:46:06.106Z,956.2984619
2023-04-16T10:47:07.550Z,956.3117065
2023-04-16T10:48:09.133Z,956.3267822
2023-04-16T10:49:10.391Z,956.321228
2023-04-16T10:50:11.064Z,956.3190918
2023-04-16T10:51:12.996Z,956.309082
2023-04-16T10:52:45.199Z,956.3167725
2023-04-16T10:53:46.088Z,956.3096924
2023-04-16T10:54:46.968Z,956.3242188
2023-04-16T10:55:48.085Z,956.3317261
2023-04-16T10:56:49.751Z,956.3442993
2023-04-16T10:57:50.493Z,956.3401489
2023-04-16T10:58:52.069Z,956.3278809
2023-04-16T10:59:53.668Z,956.3545532
2023-04-16T11:00:55.094Z,956.3422852
2023-04-16T11:01:56.151Z,956.3126831
2023-04-16T11:02:57.683Z,956.3331299
2023-04-16T11:03:58.751Z,956.3203125
2023-04-16T11:04:59.699Z,956.3278809
2023-04-16T11:06:00.425Z,956.3378296
2023-04-16T11:07:02.107Z,956.3365479
2023-04-16T11:08:03.146Z,956.3329468
2023-04-16T11:09:05.165Z,956.3292236
2023-04-16T11:10:07.152Z,956.3488159
2023-04-16T11:11:08.218Z,956.3337402
2023-04-16T11:12:10.058Z,956.3937988
2023-04-16T11:13:11.048Z,956.381897
2023-04-16T11:14:12.118Z,956.3370361
2023-04-16T11:15:44.606Z,956.3435669
2023-04-16T11:16:46.145Z,956.3483887
2023-04-16T11:17:47.095Z,956.3573608
2023-04-16T11:18:51.454Z,956.3760986
2023-04-16T11:19:49.702Z,956.3723145
2023-04-16T11:20:51.670Z,956.3545532